TimeEST,TemperatureF,Dew PointF,Humidity,Sea Level PressureIn,VisibilityMPH,Wind Direction,Wind SpeedMPH,Gust SpeedMPH,PrecipitationIn,Events,Conditions,WindDirDegrees,DateUTC
12:56 AM,32.0,28.0,85,30.22,9.0,ESE,6.9,-,N/A,,Overcast,110,2013-02-23 05:56:00
1:27 AM,32.0,28.4,87,30.18,6.0,ESE,6.9,-,N/A,,Overcast,120,2013-02-23 06:27:00
1:56 AM,32.0,30.0,92,30.19,3.0,ESE,5.8,-,0.00,Rain,Light Rain,120,2013-02-23 06:56:00
2:56 AM,32.0,30.9,96,30.17,2.0,SE,4.6,-,0.00,Rain,Light Rain,140,2013-02-23 07:56:00
3:56 AM,32.0,30.9,96,30.14,1.5,ESE,3.5,-,0.00,Rain,Light Rain,110,2013-02-23 08:56:00
4:56 AM,32.0,30.9,96,30.12,1.2,SE,4.6,-,0.00,Rain,Light Rain,130,2013-02-23 09:56:00
5:56 AM,32.0,32.0,100,30.11,1.5,Calm,Calm,-,0.00,,Light Drizzle,0,2013-02-23 10:56:00
6:37 AM,32.0,32.0,100,30.09,0.8,Calm,Calm,-,0.00,,Light Drizzle,0,2013-02-23 11:37:00
6:56 AM,32.0,30.9,96,30.11,0.8,Calm,Calm,-,0.00,,Light Drizzle,0,2013-02-23 11:56:00
7:11 AM,32.0,32.0,100,30.09,0.5,Calm,Calm,-,0.00,Fog,Light Drizzle,0,2013-02-23 12:11:00
7:36 AM,32.0,32.0,100,30.09,0.5,Calm,Calm,-,0.00,Fog,Light Drizzle,0,2013-02-23 12:36:00
7:56 AM,32.0,32.0,100,30.10,0.2,Calm,Calm,-,0.00,Fog,Light Drizzle,0,2013-02-23 12:56:00
8:56 AM,33.1,32.0,96,30.07,0.5,Calm,Calm,-,0.01,,Light Drizzle,0,2013-02-23 13:56:00
9:13 AM,33.8,33.8,100,30.05,1.0,Calm,Calm,-,0.01,,Light Drizzle,0,2013-02-23 14:13:00
9:31 AM,33.8,32.0,93,30.04,0.5,Calm,Calm,-,0.01,Fog,Light Drizzle,0,2013-02-23 14:31:00
9:56 AM,33.1,32.0,96,30.05,0.8,WNW,3.5,-,0.01,,Light Drizzle,290,2013-02-23 14:56:00
10:56 AM,34.0,34.0,100,30.03,0.8,Calm,Calm,-,0.01,,Light Drizzle,0,2013-02-23 15:56:00
11:23 AM,33.8,33.8,100,30.00,1.0,West,3.5,-,0.00,,Light Drizzle,270,2013-02-23 16:23:00
11:56 AM,35.1,34.0,96,30.01,1.0,WNW,5.8,-,0.01,,Light Drizzle,300,2013-02-23 16:56:00
12:56 PM,36.0,35.1,97,29.98,1.2,WNW,4.6,-,0.00,,Light Drizzle,290,2013-02-23 17:56:00
1:25 PM,35.6,35.6,100,29.96,2.0,West,3.5,-,0.00,,Light Drizzle,280,2013-02-23 18:25:00
1:44 PM,35.6,35.6,100,29.95,3.0,West,4.6,-,0.00,,Light Drizzle,280,2013-02-23 18:44:00
1:56 PM,37.0,36.0,96,29.96,3.0,WNW,4.6,-,0.00,,Overcast,290,2013-02-23 18:56:00
2:56 PM,37.9,36.0,93,29.93,4.0,NW,4.6,-,N/A,,Overcast,310,2013-02-23 19:56:00
3:56 PM,39.0,37.0,93,29.91,4.0,WNW,3.5,-,N/A,,Overcast,300,2013-02-23 20:56:00
4:56 PM,39.0,37.9,96,29.88,3.0,Calm,Calm,-,N/A,,Overcast,0,2013-02-23 21:56:00
5:56 PM,37.9,37.0,97,29.89,2.0,NW,5.8,-,0.00,,Light Drizzle,310,2013-02-23 22:56:00
6:27 PM,37.4,37.4,100,29.88,1.0,NW,5.8,-,0.00,,Light Drizzle,310,2013-02-23 23:27:00
6:56 PM,37.0,37.0,100,29.90,0.8,WNW,5.8,-,0.00,,Light Drizzle,300,2013-02-23 23:56:00
7:56 PM,37.9,37.9,100,29.88,0.8,WNW,3.5,-,0.00,,Light Drizzle,300,2013-02-24 00:56:00
8:56 PM,37.0,37.0,100,29.86,0.8,WNW,5.8,-,0.00,,Light Drizzle,300,2013-02-24 01:56:00
9:56 PM,37.0,37.0,100,29.87,0.8,WNW,9.2,-,0.00,,Light Drizzle,300,2013-02-24 02:56:00
10:30 PM,37.4,35.6,93,29.84,1.5,WNW,8.1,-,N/A,,Overcast,300,2013-02-24 03:30:00
10:56 PM,37.0,36.0,96,29.85,1.5,WNW,6.9,-,0.00,,Overcast,300,2013-02-24 03:56:00
11:56 PM,37.0,36.0,96,29.83,1.5,NW,6.9,-,N/A,,Overcast,310,2013-02-24 04:56:00